createdAt,value
2023-02-02T00:01:51.992Z,8.53
2023-02-02T00:04:22.949Z,8.70
2023-02-02T00:06:51.028Z,8.68
2023-02-02T00:09:21.237Z,8.68
2023-02-02T00:11:51.079Z,8.49
2023-02-02T00:14:19.375Z,8.59
2023-02-02T00:16:50.144Z,8.46
2023-02-02T00:19:21.337Z,8.63
2023-02-02T00:21:49.879Z,8.71
2023-02-02T00:24:19.457Z,8.67
2023-02-02T00:26:53.373Z,8.76
2023-02-02T00:29:25.591Z,8.79
2023-02-02T00:31:55.699Z,8.66
2023-02-02T00:34:24.464Z,8.64
2023-02-02T00:36:52.876Z,8.58
2023-02-02T00:39:25.305Z,8.61
2023-02-02T00:41:53.480Z,8.74
2023-02-02T00:44:39.046Z,8.57
2023-02-02T00:47:08.649Z,8.55
2023-02-02T00:49:36.786Z,8.44
2023-02-02T00:52:06.902Z,8.59
2023-02-02T00:54:35.023Z,8.53
2023-02-02T00:57:03.838Z,8.53
2023-02-02T00:59:32.608Z,8.65
2023-02-02T01:02:02.176Z,8.70
2023-02-02T01:04:31.874Z,8.53
2023-02-02T01:06:59.990Z,8.40
2023-02-02T01:09:28.094Z,8.44
2023-02-02T01:11:56.737Z,8.51
2023-02-02T01:14:27.098Z,8.45
2023-02-02T01:16:57.117Z,8.47
2023-02-02T01:19:25.245Z,8.55
2023-02-02T01:21:55.423Z,8.39
2023-02-02T01:24:23.621Z,8.42
2023-02-02T01:26:53.040Z,8.35
2023-02-02T01:29:21.141Z,8.49
2023-02-02T01:31:49.507Z,8.47
2023-02-02T01:34:17.674Z,8.24
2023-02-02T01:36:45.938Z,8.21
2023-02-02T01:39:16.087Z,8.16
2023-02-02T01:41:44.314Z,8.25
2023-02-02T01:45:07.481Z,8.16
2023-02-02T01:47:42.379Z,8.28
2023-02-02T01:50:13.198Z,8.36
2023-02-02T01:52:42.930Z,8.40
2023-02-02T01:55:16.656Z,8.31
2023-02-02T01:57:50.822Z,8.39
2023-02-02T02:00:24.898Z,8.50
2023-02-02T02:03:02.212Z,8.36
2023-02-02T02:05:36.271Z,8.23
2023-02-02T02:08:13.114Z,8.43
2023-02-02T02:10:42.520Z,8.41
2023-02-02T02:13:11.643Z,8.29
2023-02-02T02:16:15.763Z,8.25
2023-02-02T02:18:56.102Z,8.36
2023-02-02T02:21:58.604Z,8.21
2023-02-02T02:25:38.705Z,8.25
2023-02-02T02:28:54.268Z,8.27
2023-02-02T02:32:00.085Z,8.28
2023-02-02T02:34:45.323Z,8.37
2023-02-02T02:37:23.965Z,8.41
2023-02-02T02:39:58.979Z,8.31
2023-02-02T02:42:31.933Z,8.14
2023-02-02T02:45:04.975Z,8.07
2023-02-02T02:47:35.835Z,8.19
2023-02-02T02:50:04.747Z,8.21
2023-02-02T02:52:34.362Z,8.19
2023-02-02T02:55:05.465Z,8.25
2023-02-02T02:57:53.090Z,8.39
2023-02-02T03:00:47.373Z,8.28
2023-02-02T03:03:34.503Z,8.37
2023-02-02T03:06:13.549Z,8.26
2023-02-02T03:08:47.817Z,8.24
2023-02-02T03:11:17.592Z,8.35
2023-02-02T03:13:45.968Z,8.46
2023-02-02T03:16:16.110Z,8.36
2023-02-02T03:18:45.843Z,8.44
2023-02-02T03:21:14.036Z,8.60
2023-02-02T03:23:42.308Z,8.50
2023-02-02T03:26:10.436Z,8.49
2023-02-02T03:28:38.613Z,8.59
2023-02-02T03:31:07.086Z,8.36
2023-02-02T03:33:37.817Z,8.53
2023-02-02T03:36:08.690Z,8.43
2023-02-02T03:38:36.706Z,8.32
2023-02-02T03:41:06.241Z,8.34
2023-02-02T03:43:34.310Z,8.33
2023-02-02T03:46:05.237Z,8.35
2023-02-02T03:48:37.008Z,8.38
2023-02-02T03:51:09.512Z,8.55
2023-02-02T03:53:37.606Z,8.58
2023-02-02T03:56:06.710Z,8.53
2023-02-02T03:58:34.896Z,8.58
2023-02-02T04:01:05.079Z,8.38
2023-02-02T04:03:33.582Z,8.46
2023-02-02T04:06:01.922Z,8.54
2023-02-02T04:08:31.547Z,8.50
2023-02-02T04:11:10.031Z,8.46
2023-02-02T04:13:38.154Z,8.48
2023-02-02T04:16:07.512Z,8.55
2023-02-02T04:18:37.824Z,8.56
2023-02-02T04:21:08.513Z,8.61
2023-02-02T04:23:38.821Z,8.61
2023-02-02T04:26:07.437Z,8.63
2023-02-02T04:28:35.575Z,8.68
2023-02-02T04:31:03.941Z,8.61
2023-02-02T04:33:31.974Z,8.76
2023-02-02T04:36:00.034Z,8.73
2023-02-02T04:38:28.395Z,8.76
2023-02-02T04:40:57.763Z,8.66
2023-02-02T04:43:25.914Z,8.85
2023-02-02T04:45:57.501Z,8.73
2023-02-02T04:48:25.790Z,8.65
2023-02-02T04:51:01.293Z,8.63
2023-02-02T04:53:29.635Z,8.61
2023-02-02T04:55:59.605Z,8.73
2023-02-02T04:58:27.624Z,8.74
2023-02-02T05:00:55.823Z,8.73
2023-02-02T05:03:23.902Z,8.70
2023-02-02T05:05:52.039Z,8.61
2023-02-02T05:08:20.199Z,8.48
2023-02-02T05:10:50.159Z,8.64
2023-02-02T05:13:19.631Z,8.64
2023-02-02T05:15:47.901Z,8.57
2023-02-02T05:18:16.460Z,8.56
2023-02-02T05:20:44.485Z,8.63
2023-02-02T05:23:12.510Z,8.61
2023-02-02T05:25:40.536Z,8.64
2023-02-02T05:28:08.601Z,8.69
2023-02-02T05:30:40.596Z,8.82
2023-02-02T05:33:08.661Z,8.70
2023-02-02T05:35:36.733Z,8.65
2023-02-02T05:38:04.994Z,8.71
2023-02-02T05:40:33.140Z,8.68
2023-02-02T05:43:01.359Z,8.66
2023-02-02T05:45:29.430Z,8.73
2023-02-02T05:47:58.780Z,8.61
2023-02-02T05:50:26.940Z,8.59
2023-02-02T05:53:03.787Z,8.66
2023-02-02T05:55:32.308Z,8.79
2023-02-02T05:58:00.347Z,8.71
2023-02-02T06:00:28.469Z,8.69
2023-02-02T06:02:58.062Z,8.58
2023-02-02T06:05:26.467Z,8.58
2023-02-02T06:07:54.669Z,8.61
2023-02-02T06:10:22.758Z,8.62
2023-02-02T06:12:50.914Z,8.70
2023-02-02T06:15:19.203Z,8.74
2023-02-02T06:17:47.287Z,8.74
2023-02-02T06:20:16.924Z,8.74
2023-02-02T06:22:44.943Z,8.79
2023-02-02T06:25:13.013Z,8.71
2023-02-02T06:27:41.206Z,8.58
2023-02-02T06:30:11.147Z,8.54
2023-02-02T06:32:39.729Z,8.63
2023-02-02T06:35:09.650Z,8.62
2023-02-02T06:37:39.953Z,8.69
2023-02-02T06:40:10.233Z,8.82
2023-02-02T06:42:38.585Z,8.79
2023-02-02T06:45:07.679Z,8.69
2023-02-02T06:47:35.889Z,8.60
2023-02-02T06:50:04.284Z,8.73
2023-02-02T06:52:32.364Z,8.83
2023-02-02T06:55:01.881Z,8.85
2023-02-02T06:57:30.002Z,8.81
2023-02-02T06:59:58.226Z,8.86
2023-02-02T07:02:26.384Z,8.87
2023-02-02T07:04:54.435Z,8.81
2023-02-02T07:07:22.481Z,8.67
2023-02-02T07:09:57.970Z,8.68
2023-02-02T07:12:28.364Z,8.76
2023-02-02T07:14:56.743Z,8.83
2023-02-02T07:17:24.757Z,8.92
2023-02-02T07:19:52.764Z,8.79
2023-02-02T07:22:21.062Z,8.86
2023-02-02T07:24:49.153Z,8.87
2023-02-02T07:27:17.283Z,8.81
2023-02-02T07:29:46.695Z,8.88
2023-02-02T07:32:14.907Z,9.83
2023-02-02T07:34:44.111Z,10.47
2023-02-02T07:37:12.129Z,11.10
2023-02-02T07:39:40.644Z,11.23
2023-02-02T07:42:32.712Z,11.32
2023-02-02T07:45:26.811Z,11.29
2023-02-02T07:47:56.919Z,10.62
2023-02-02T07:50:25.360Z,10.09
2023-02-02T07:52:53.656Z,9.88
2023-02-02T07:55:22.195Z,9.72
2023-02-02T07:57:52.786Z,9.71
2023-02-02T08:00:24.821Z,9.61
2023-02-02T08:02:53.247Z,9.54
2023-02-02T08:05:22.844Z,9.41
2023-02-02T08:07:51.119Z,9.27
2023-02-02T08:10:19.467Z,9.35
2023-02-02T08:12:47.563Z,9.25
2023-02-02T08:15:15.740Z,9.24
2023-02-02T08:17:49.837Z,9.27
2023-02-02T08:20:20.667Z,9.35
2023-02-02T08:22:48.737Z,9.26
2023-02-02T08:25:16.908Z,9.20
2023-02-02T08:27:45.124Z,9.20
2023-02-02T08:30:14.660Z,9.11
2023-02-02T08:32:42.881Z,9.19
2023-02-02T08:35:13.104Z,9.11
2023-02-02T08:37:41.173Z,9.00
2023-02-02T08:40:11.628Z,9.13
2023-02-02T08:42:39.844Z,9.24
2023-02-02T08:46:02.363Z,9.24
2023-02-02T08:48:10.718Z,9.26
2023-02-02T08:50:40.986Z,9.11
2023-02-02T08:53:09.260Z,9.22
2023-02-02T08:55:37.293Z,9.13
2023-02-02T08:58:05.312Z,9.22
2023-02-02T09:00:33.824Z,9.33
2023-02-02T09:03:02.041Z,9.24
2023-02-02T09:05:30.345Z,9.20
2023-02-02T09:08:00.366Z,9.18
2023-02-02T09:10:28.487Z,9.23
2023-02-02T09:12:56.580Z,9.05
2023-02-02T09:15:24.966Z,8.99
2023-02-02T09:17:53.653Z,9.07
2023-02-02T09:20:22.146Z,9.09
2023-02-02T09:22:50.542Z,9.19
2023-02-02T09:25:19.946Z,9.18
2023-02-02T09:27:48.198Z,9.11
2023-02-02T09:30:20.202Z,9.24
2023-02-02T09:32:51.162Z,9.23
2023-02-02T09:35:19.266Z,9.20
2023-02-02T09:37:47.365Z,9.18
2023-02-02T09:40:19.513Z,9.06
2023-02-02T09:43:04.068Z,9.01
2023-02-02T09:45:46.726Z,9.03
2023-02-02T09:48:29.553Z,8.99
2023-02-02T09:51:01.864Z,9.08
2023-02-02T09:53:54.396Z,9.05
2023-02-02T09:56:33.905Z,8.79
2023-02-02T09:59:18.765Z,8.82
2023-02-02T10:01:51.705Z,9.02
2023-02-02T10:04:26.667Z,9.06
2023-02-02T10:07:00.084Z,9.17
2023-02-02T10:09:40.816Z,9.23
2023-02-02T10:12:27.025Z,9.27
2023-02-02T10:15:04.696Z,9.26
2023-02-02T10:17:43.047Z,9.15
2023-02-02T10:20:24.628Z,9.21
2023-02-02T10:22:55.469Z,9.10
2023-02-02T10:25:28.208Z,9.27
2023-02-02T10:28:05.339Z,9.27
2023-02-02T10:30:46.509Z,9.35
2023-02-02T10:33:29.211Z,9.38
2023-02-02T10:36:08.376Z,9.28
2023-02-02T10:38:43.433Z,9.31
2023-02-02T10:41:20.991Z,9.28
2023-02-02T10:44:16.696Z,9.19
2023-02-02T10:46:50.459Z,9.30
2023-02-02T10:49:31.172Z,9.22
2023-02-02T10:52:14.584Z,9.37
2023-02-02T10:54:57.865Z,9.15
2023-02-02T10:57:46.888Z,9.22
2023-02-02T11:00:25.439Z,9.11
2023-02-02T11:02:54.378Z,9.14
2023-02-02T11:05:43.029Z,9.16
2023-02-02T11:08:17.411Z,9.33
2023-02-02T11:10:48.261Z,9.19
2023-02-02T11:13:26.428Z,9.23
2023-02-02T11:16:21.741Z,9.16
2023-02-02T11:18:50.631Z,9.11
2023-02-02T11:21:21.980Z,8.98
2023-02-02T11:23:56.633Z,9.21
2023-02-02T11:26:26.494Z,9.30
2023-02-02T11:28:58.723Z,9.38
2023-02-02T11:31:37.667Z,9.35
2023-02-02T11:34:20.681Z,9.20
2023-02-02T11:41:03.833Z,9.13
2023-02-02T11:43:41.085Z,9.18
2023-02-02T11:47:03.173Z,9.27
2023-02-02T11:49:37.833Z,9.19
2023-02-02T11:52:23.479Z,9.40
2023-02-02T11:54:53.964Z,9.24
2023-02-02T11:57:25.274Z,9.34
2023-02-02T12:00:17.013Z,9.40
2023-02-02T12:02:49.563Z,9.35
2023-02-02T12:05:37.953Z,9.27
2023-02-02T12:08:09.088Z,9.27
2023-02-02T12:10:45.075Z,9.22
2023-02-02T12:13:26.318Z,9.26
2023-02-02T12:16:09.058Z,9.31
2023-02-02T12:18:52.116Z,9.27
2023-02-02T12:21:33.212Z,9.28
2023-02-02T12:24:22.135Z,9.40
2023-02-02T12:26:57.911Z,9.04
2023-02-02T12:29:45.462Z,9.15
2023-02-02T12:32:29.983Z,9.07
2023-02-02T12:35:23.082Z,9.03
2023-02-02T12:38:03.053Z,9.00
2023-02-02T12:40:50.471Z,8.89
2023-02-02T12:43:31.532Z,8.90
2023-02-02T12:46:22.085Z,8.91
2023-02-02T12:49:14.138Z,9.03
2023-02-02T12:52:00.476Z,8.91
2023-02-02T12:54:49.083Z,8.89
2023-02-02T12:57:29.574Z,8.93
2023-02-02T13:00:46.702Z,8.97
2023-02-02T13:03:31.109Z,9.03
2023-02-02T13:06:28.436Z,9.11
2023-02-02T13:09:03.308Z,9.12
2023-02-02T13:11:41.979Z,9.07
2023-02-02T13:14:16.511Z,9.15
2023-02-02T13:16:50.187Z,9.05
2023-02-02T13:19:32.978Z,9.05
2023-02-02T13:22:07.043Z,9.04
2023-02-02T13:24:44.154Z,8.90
2023-02-02T13:27:20.214Z,9.01
2023-02-02T13:29:55.348Z,9.04
2023-02-02T13:32:29.914Z,9.02
2023-02-02T13:35:04.458Z,9.02
2023-02-02T13:37:43.552Z,9.17
2023-02-02T13:40:27.664Z,9.04
2023-02-02T13:43:06.856Z,9.09
2023-02-02T13:45:49.032Z,9.07
2023-02-02T13:48:31.153Z,9.18
2023-02-02T13:51:32.944Z,9.08
2023-02-02T13:54:34.396Z,9.22
2023-02-02T13:57:20.423Z,9.10
2023-02-02T13:59:58.669Z,9.16
2023-02-02T14:02:33.830Z,8.97
2023-02-02T14:05:04.820Z,9.09
2023-02-02T14:07:42.521Z,9.11
2023-02-02T14:10:26.632Z,9.17
2023-02-02T14:12:57.430Z,9.20
2023-02-02T14:15:40.387Z,9.23
2023-02-02T14:18:08.872Z,9.24
2023-02-02T14:20:47.639Z,9.08
2023-02-02T14:23:53.809Z,9.18
2023-02-02T14:26:43.898Z,9.22
2023-02-02T14:29:58.184Z,9.16
2023-02-02T14:32:42.125Z,9.27
2023-02-02T14:36:02.594Z,9.29
2023-02-02T14:39:12.177Z,9.24
2023-02-02T14:42:34.796Z,9.20
2023-02-02T14:45:30.912Z,9.16
2023-02-02T14:48:03.206Z,9.06
2023-02-02T14:50:49.202Z,9.25
2023-02-02T14:53:28.488Z,9.32
2023-02-02T14:56:01.617Z,9.32
2023-02-02T14:58:35.088Z,9.37
2023-02-02T15:01:13.443Z,9.37
2023-02-02T15:03:52.966Z,9.30
2023-02-02T15:06:34.519Z,9.27
2023-02-02T15:09:38.332Z,9.31
2023-02-02T15:12:45.853Z,9.22
2023-02-02T15:15:21.241Z,9.28
2023-02-02T15:18:12.664Z,9.26
2023-02-02T15:20:48.896Z,9.32
2023-02-02T15:23:28.769Z,9.33
2023-02-02T15:26:04.883Z,9.27
2023-02-02T15:28:43.319Z,9.24
2023-02-02T15:31:22.785Z,9.34
2023-02-02T15:33:56.546Z,9.44
2023-02-02T15:36:27.909Z,9.35
2023-02-02T15:38:59.064Z,9.34
2023-02-02T15:41:33.262Z,9.31
2023-02-02T15:44:01.648Z,9.34
2023-02-02T15:46:34.369Z,9.25
2023-02-02T15:49:35.083Z,9.34
2023-02-02T15:52:15.033Z,9.30
2023-02-02T15:54:53.948Z,9.34
2023-02-02T15:57:29.485Z,9.36
2023-02-02T15:59:58.373Z,9.31
2023-02-02T16:02:38.832Z,9.37
2023-02-02T16:05:40.838Z,9.36
2023-02-02T16:08:16.238Z,9.36
2023-02-02T16:10:46.598Z,9.32
2023-02-02T16:13:27.453Z,9.28
2023-02-02T16:16:02.040Z,9.35
2023-02-02T16:18:32.209Z,9.31
2023-02-02T16:21:07.814Z,9.27
2023-02-02T16:23:38.084Z,9.26
2023-02-02T16:26:08.773Z,9.31
2023-02-02T16:28:37.304Z,9.34
2023-02-02T16:31:14.173Z,9.33
2023-02-02T16:33:44.770Z,9.24
2023-02-02T16:36:25.581Z,9.35
2023-02-02T16:38:56.190Z,9.37
2023-02-02T16:41:32.262Z,9.37
2023-02-02T16:44:37.857Z,9.31
2023-02-02T16:47:08.402Z,9.36
2023-02-02T16:49:37.784Z,9.24
2023-02-02T16:52:17.129Z,9.22
2023-02-02T16:54:54.993Z,9.31
2023-02-02T16:57:27.606Z,9.39
2023-02-02T17:00:03.364Z,9.44
2023-02-02T17:02:35.119Z,9.42
2023-02-02T17:05:08.384Z,9.45
2023-02-02T17:07:40.472Z,9.40
2023-02-02T17:10:25.187Z,9.32
2023-02-02T17:12:54.298Z,9.39
2023-02-02T17:15:52.760Z,9.39
2023-02-02T17:18:21.072Z,9.40
2023-02-02T17:20:57.229Z,9.27
2023-02-02T17:23:30.557Z,9.36
2023-02-02T17:25:59.237Z,9.27
2023-02-02T17:28:29.941Z,9.11
2023-02-02T17:31:04.065Z,9.28
2023-02-02T17:33:34.424Z,9.35
2023-02-02T17:36:03.113Z,9.22
2023-02-02T17:38:33.455Z,9.24
2023-02-02T17:41:03.904Z,9.18
2023-02-02T17:43:33.285Z,9.08
2023-02-02T17:46:03.388Z,9.09
2023-02-02T17:48:31.808Z,9.11
2023-02-02T17:51:03.468Z,9.01
2023-02-02T17:53:34.736Z,9.04
2023-02-02T17:56:03.369Z,9.02
2023-02-02T17:58:31.394Z,8.97
2023-02-02T18:01:00.703Z,9.02
2023-02-02T18:03:34.213Z,9.14
2023-02-02T18:06:04.670Z,9.17
2023-02-02T18:08:35.764Z,9.04
2023-02-02T18:11:04.657Z,9.03
2023-02-02T18:13:33.450Z,9.15
2023-02-02T18:16:01.697Z,9.14
2023-02-02T18:18:30.072Z,9.11
2023-02-02T18:20:59.401Z,9.09
2023-02-02T18:23:28.276Z,9.03
2023-02-02T18:25:58.514Z,9.08
2023-02-02T18:28:26.704Z,8.91
2023-02-02T18:30:55.485Z,9.03
2023-02-02T18:33:23.890Z,8.92
2023-02-02T18:35:52.312Z,8.89
2023-02-02T18:38:22.000Z,8.88
2023-02-02T18:40:58.199Z,8.73
2023-02-02T18:43:26.313Z,8.77
2023-02-02T18:46:01.566Z,8.81
2023-02-02T18:48:30.379Z,8.81
2023-02-02T18:50:58.684Z,8.83
2023-02-02T18:53:27.107Z,8.92
2023-02-02T18:55:56.765Z,8.96
2023-02-02T18:58:26.243Z,9.04
2023-02-02T19:00:54.642Z,9.10
2023-02-02T19:03:22.847Z,8.91
2023-02-02T19:06:09.345Z,8.96
2023-02-02T19:08:37.488Z,8.86
2023-02-02T19:11:17.343Z,8.83
2023-02-02T19:13:46.240Z,8.89
2023-02-02T19:16:40.457Z,8.88
2023-02-02T19:19:18.356Z,9.02
2023-02-02T19:21:47.456Z,9.08
2023-02-02T19:24:16.294Z,9.03
2023-02-02T19:26:50.303Z,8.92
2023-02-02T19:29:21.922Z,8.89
2023-02-02T19:31:54.369Z,8.93
2023-02-02T19:34:24.377Z,8.99
2023-02-02T19:36:52.551Z,9.04
2023-02-02T19:39:27.891Z,9.10
2023-02-02T19:42:00.833Z,9.11
2023-02-02T19:44:34.335Z,9.19
2023-02-02T19:47:21.122Z,9.05
2023-02-02T19:49:49.484Z,9.08
2023-02-02T19:52:24.379Z,9.11
2023-02-02T19:54:54.094Z,9.03
2023-02-02T19:57:36.874Z,8.94
2023-02-02T20:00:21.148Z,9.08
2023-02-02T20:03:02.562Z,9.13
2023-02-02T20:05:58.126Z,9.07
2023-02-02T20:08:32.962Z,9.12
2023-02-02T20:11:07.374Z,9.03
2023-02-02T20:13:44.896Z,9.06
2023-02-02T20:16:17.461Z,8.87
2023-02-02T20:18:50.873Z,8.94
2023-02-02T20:21:24.861Z,9.08
2023-02-02T20:23:53.208Z,8.93
2023-02-02T20:26:27.455Z,8.94
2023-02-02T20:29:00.153Z,8.90
2023-02-02T20:31:39.574Z,9.07
2023-02-02T20:34:25.475Z,9.09
2023-02-02T20:36:55.389Z,8.99
2023-02-02T20:39:30.428Z,8.99
2023-02-02T20:41:58.805Z,8.85
2023-02-02T20:44:29.883Z,8.94
2023-02-02T20:47:00.415Z,9.00
2023-02-02T20:49:31.612Z,9.06
2023-02-02T20:52:03.643Z,8.99
2023-02-02T20:54:33.053Z,8.95
2023-02-02T20:57:02.129Z,8.78
2023-02-02T20:59:32.093Z,8.85
2023-02-02T21:02:01.702Z,8.81
2023-02-02T21:04:30.358Z,8.85
2023-02-02T21:06:59.512Z,8.85
2023-02-02T21:09:28.523Z,8.84
2023-02-02T21:11:56.894Z,8.93
2023-02-02T21:14:25.109Z,8.94
2023-02-02T21:17:08.834Z,8.91
2023-02-02T21:19:42.363Z,8.95
2023-02-02T21:22:11.626Z,8.93
2023-02-02T21:24:39.917Z,8.94
2023-02-02T21:27:11.500Z,8.98
2023-02-02T21:29:41.287Z,9.03
2023-02-02T21:32:10.776Z,9.04
2023-02-02T21:34:39.081Z,9.02
2023-02-02T21:37:14.702Z,9.07
2023-02-02T21:39:48.713Z,9.08
2023-02-02T21:42:21.522Z,9.12
2023-02-02T21:44:58.145Z,9.12
2023-02-02T21:47:55.591Z,8.98
2023-02-02T21:50:29.749Z,9.00
2023-02-02T21:53:22.592Z,9.04
2023-02-02T21:55:55.132Z,9.08
2023-02-02T21:58:28.833Z,8.98
2023-02-02T22:01:03.491Z,9.00
2023-02-02T22:03:58.723Z,8.98
2023-02-02T22:06:34.321Z,8.84
2023-02-02T22:09:16.371Z,8.91
2023-02-02T22:11:50.935Z,9.01
2023-02-02T22:14:26.773Z,8.77
2023-02-02T22:16:59.355Z,8.82
2023-02-02T22:19:34.249Z,8.73
2023-02-02T22:22:21.497Z,8.86
2023-02-02T22:25:00.477Z,8.73
2023-02-02T22:27:41.461Z,8.81
2023-02-02T22:30:24.219Z,8.84
2023-02-02T22:32:53.373Z,8.81
2023-02-02T22:35:23.490Z,8.85
2023-02-02T22:37:52.735Z,8.90
2023-02-02T22:40:22.705Z,9.03
2023-02-02T22:42:53.013Z,9.02
2023-02-02T22:45:22.126Z,9.00
2023-02-02T22:47:51.577Z,9.08
2023-02-02T22:50:24.859Z,9.12
2023-02-02T22:52:54.356Z,9.13
2023-02-02T22:55:23.505Z,9.19
2023-02-02T22:57:53.303Z,9.28
2023-02-02T23:00:26.871Z,9.28
2023-02-02T23:02:59.016Z,9.23
2023-02-02T23:05:30.108Z,9.12
2023-02-02T23:07:59.139Z,9.05
2023-02-02T23:10:38.784Z,9.16
2023-02-02T23:13:07.916Z,9.16
2023-02-02T23:15:36.631Z,9.05
2023-02-02T23:18:05.874Z,9.09
2023-02-02T23:20:35.610Z,9.13
2023-02-02T23:23:05.892Z,9.16
2023-02-02T23:25:34.543Z,9.14
2023-02-02T23:28:02.916Z,9.14
2023-02-02T23:30:51.313Z,9.02
2023-02-02T23:33:19.839Z,9.07
2023-02-02T23:35:51.728Z,8.97
2023-02-02T23:38:19.925Z,9.07
2023-02-02T23:40:47.954Z,9.04
2023-02-02T23:43:17.611Z,9.08
2023-02-02T23:45:45.853Z,9.07
2023-02-02T23:48:14.055Z,9.11
2023-02-02T23:50:47.011Z,9.17
2023-02-02T23:53:16.932Z,9.04
2023-02-02T23:55:46.294Z,9.09
2023-02-02T23:58:15.598Z,9.15
